Airfield :
LOGIN :

Register | Disclaimer

   EN    FR    IT 

 










Legend :    VFR   Marginal VFR   IFR   Intensive IFR   Very Intensive IFR
Visi :
Ceiling :
>= 8 km
>= 3000ft
5 to 8 km
1000 to 3000 ft
1500m to 5 km
500 to 1000 ft
800 to 1500m
200 to 500 ft
< 800m
< 200 ft
Symbols :   Thunderstorms  Fog  Heavy snow  Heavy precipitations  Wind > 20 kt
SIGMETs :     Misc.  Thunderstorms  Icing  Turbulence  Mountain Waves  Volcanic Ashes






- Airport Elevation : 36 ft
- IATA code : LTQ


LFAT - Le Touquet

CURRENT METAR :
  • 141230Z AUTO 23011KT 200V260 9999 FEW022 BKN084 17/11 Q1005 TEMPO 4000 SHRA BKN020CB

EXPIRED METARs :
  • 141200Z AUTO 24010KT 220V290 9999 BKN033 BKN044 BKN064 17/12 Q1005 TEMPO 4000 SHRA BKN020CB
  • 141130Z AUTO 23008KT 200V280 9999 FEW036 BKN048 BKN054 17/11 Q1005 TEMPO 4000 SHRA BKN020CB
  • 141100Z AUTO 23013KT 200V260 8000 FEW021 OVC052 16/11 Q1005 TEMPO 3000 RADZ OVC009
  • 141030Z AUTO 24013KT 210V270 8000 FEW018 OVC054 16/11 Q1005 TEMPO 3000 RADZ OVC009
  • 141000Z AUTO 24012KT 210V270 8000 OVC048 16/11 Q1005 TEMPO 3000 RADZ OVC009
  • 140930Z AUTO 25010KT 220V280 8000 FEW009 BKN016 BKN025 15/12 Q1005 TEMPO 3000 RADZ OVC009
  • 140900Z AUTO 22011KT 190V260 9000 -DZ SCT008 BKN012 BKN018 14/13 Q1005 TEMPO 3000 RADZ OVC009
  • 140830Z AUTO 22011KT 180V240 9999 -RA BKN011 BKN029 OVC034 15/13 Q1005 TEMPO 3000 RADZ OVC009
  • 140800Z AUTO 21009KT 170V250 9999 OVC012 15/12 Q1005 TEMPO 3000 RADZ OVC009

TAF TAF LFAT
Valid from the 14 at 12:00 until the 14 at 21:00 UTC


141100Z 1412/1421 23010KT 9999 BKN020
TEMPO 1412/1421 4000 SHRA BKN020CB
PROB30
TEMPO 1418/1420 1500 TSRA
ATIS : +33 3 21 06 62 84



MET'MAP, your aeronautical weather chart ! - Copyright ORBIFLY December 2007 - Disclaimer

ORBIFLY MET'MAP TEAM :

Programming & Development : Alexandra Zaïnal
Original concept : Baudouin d'Aumeries
Technical & hardware support : Manuel Goepfert
Assistance : Marc-Olivier Méhu




SOURCES & CREDITS :

   NOAA